sensor_id;sensor_type;location;lat;lon;timestamp;P1;durP1;ratioP1;P2;durP2;ratioP2
73315;SDS011;61545;53.726;-0.444;2022-10-22T00:04:44;13.3;;;3.1;;
73315;SDS011;61545;53.726;-0.444;2022-10-22T00:09:44;23.3;;;3.6;;
73315;SDS011;61545;53.726;-0.444;2022-10-22T00:14:44;12.7;;;2.5;;
73315;SDS011;61545;53.726;-0.444;2022-10-22T00:19:44;15.9;;;2.8;;
73315;SDS011;61545;53.726;-0.444;2022-10-22T00:24:44;15.9;;;2.8;;
73315;SDS011;61545;53.726;-0.444;2022-10-22T00:29:44;17.0;;;3.2;;
73315;SDS011;61545;53.726;-0.444;2022-10-22T00:34:44;16.7;;;2.9;;
73315;SDS011;61545;53.726;-0.444;2022-10-22T00:39:44;13.1;;;3.3;;
73315;SDS011;61545;53.726;-0.444;2022-10-22T00:45:05;16.1;;;3;;
73315;SDS011;61545;53.726;-0.444;2022-10-22T00:49:44;18.3;;;3.1;;
73315;SDS011;61545;53.726;-0.444;2022-10-22T00:54:44;18.3;;;3.1;;
73315;SDS011;61545;53.726;-0.444;2022-10-22T00:59:44;17.7;;;3.2;;
73315;SDS011;61545;53.726;-0.444;2022-10-22T01:04:44;11.6;;;2.7;;
73315;SDS011;61545;53.726;-0.444;2022-10-22T01:09:46;18.1;;;2.5;;
73315;SDS011;61545;53.726;-0.444;2022-10-22T01:14:48;13.8;;;2.1;;
73315;SDS011;61545;53.726;-0.444;2022-10-22T01:19:51;10.1;;;2.4;;
73315;SDS011;61545;53.726;-0.444;2022-10-22T01:24:52;10.1;;;2.4;;
73315;SDS011;61545;53.726;-0.444;2022-10-22T01:29:46;8.2;;;1.7;;
73315;SDS011;61545;53.726;-0.444;2022-10-22T01:34:46;10.6;;;1.8;;
73315;SDS011;61545;53.726;-0.444;2022-10-22T01:39:44;8.8;;;2;;
73315;SDS011;61545;53.726;-0.444;2022-10-22T01:44:44;11.5;;;1.9;;
73315;SDS011;61545;53.726;-0.444;2022-10-22T01:49:55;12.6;;;2.2;;
73315;SDS011;61545;53.726;-0.444;2022-10-22T01:54:46;12.6;;;2.2;;
73315;SDS011;61545;53.726;-0.444;2022-10-22T01:59:49;9.1;;;2.1;;
73315;SDS011;61545;53.726;-0.444;2022-10-22T02:04:46;8.5;;;1.8;;
73315;SDS011;61545;53.726;-0.444;2022-10-22T02:09:44;9.2;;;2.5;;
73315;SDS011;61545;53.726;-0.444;2022-10-22T02:14:44;8.6;;;2.2;;
73315;SDS011;61545;53.726;-0.444;2022-10-22T02:19:46;12.6;;;3.3;;
73315;SDS011;61545;53.726;-0.444;2022-10-22T02:24:44;12.6;;;3.3;;
73315;SDS011;61545;53.726;-0.444;2022-10-22T02:29:48;10.7;;;2.6;;
73315;SDS011;61545;53.726;-0.444;2022-10-22T02:34:44;10.1;;;2.5;;
73315;SDS011;61545;53.726;-0.444;2022-10-22T02:39:44;8.7;;;2.7;;
73315;SDS011;61545;53.726;-0.444;2022-10-22T02:44:44;13.5;;;2.3;;
73315;SDS011;61545;53.726;-0.444;2022-10-22T02:49:44;11.4;;;2.3;;
73315;SDS011;61545;53.726;-0.444;2022-10-22T02:54:44;11.4;;;2.3;;
73315;SDS011;61545;53.726;-0.444;2022-10-22T02:59:44;11.9;;;2.7;;
73315;SDS011;61545;53.726;-0.444;2022-10-22T03:04:44;9.7;;;2.5;;
73315;SDS011;61545;53.726;-0.444;2022-10-22T03:09:44;13.3;;;2.7;;
73315;SDS011;61545;53.726;-0.444;2022-10-22T03:14:44;14.6;;;2.8;;
73315;SDS011;61545;53.726;-0.444;2022-10-22T03:19:44;12.7;;;2.8;;
73315;SDS011;61545;53.726;-0.444;2022-10-22T03:24:45;12.7;;;2.8;;
73315;SDS011;61545;53.726;-0.444;2022-10-22T03:29:44;12.8;;;3.2;;
73315;SDS011;61545;53.726;-0.444;2022-10-22T03:34:44;17.7;;;4;;
73315;SDS011;61545;53.726;-0.444;2022-10-22T03:39:44;14.4;;;3.8;;
73315;SDS011;61545;53.726;-0.444;2022-10-22T03:44:44;14.3;;;3.8;;
73315;SDS011;61545;53.726;-0.444;2022-10-22T03:49:44;19.1;;;4.1;;
73315;SDS011;61545;53.726;-0.444;2022-10-22T03:54:44;19.1;;;4.1;;
73315;SDS011;61545;53.726;-0.444;2022-10-22T03:59:45;8.5;;;2.4;;
73315;SDS011;61545;53.726;-0.444;2022-10-22T04:04:44;15.4;;;3.4;;
73315;SDS011;61545;53.726;-0.444;2022-10-22T04:09:44;13.1;;;3.5;;
73315;SDS011;61545;53.726;-0.444;2022-10-22T04:14:44;13.1;;;2.8;;
73315;SDS011;61545;53.726;-0.444;2022-10-22T04:19:44;19.7;;;3.9;;
73315;SDS011;61545;53.726;-0.444;2022-10-22T04:24:44;19.7;;;3.9;;
73315;SDS011;61545;53.726;-0.444;2022-10-22T04:29:44;11.5;;;3;;
73315;SDS011;61545;53.726;-0.444;2022-10-22T04:34:44;12.2;;;3.1;;
73315;SDS011;61545;53.726;-0.444;2022-10-22T04:39:44;14.1;;;3.5;;
73315;SDS011;61545;53.726;-0.444;2022-10-22T04:44:45;19.2;;;4.2;;
73315;SDS011;61545;53.726;-0.444;2022-10-22T04:49:44;15.5;;;4.4;;
73315;SDS011;61545;53.726;-0.444;2022-10-22T04:54:44;15.5;;;4.4;;
73315;SDS011;61545;53.726;-0.444;2022-10-22T04:59:44;18.0;;;4.5;;
73315;SDS011;61545;53.726;-0.444;2022-10-22T05:04:44;13.5;;;4;;
73315;SDS011;61545;53.726;-0.444;2022-10-22T05:09:44;15.0;;;4;;
73315;SDS011;61545;53.726;-0.444;2022-10-22T05:14:44;15.2;;;4.9;;
73315;SDS011;61545;53.726;-0.444;2022-10-22T05:19:44;16.1;;;3.9;;
73315;SDS011;61545;53.726;-0.444;2022-10-22T05:24:44;16.1;;;3.9;;
73315;SDS011;61545;53.726;-0.444;2022-10-22T05:29:44;18.8;;;4.5;;
73315;SDS011;61545;53.726;-0.444;2022-10-22T05:34:44;20.8;;;5.1;;
73315;SDS011;61545;53.726;-0.444;2022-10-22T05:39:44;17.7;;;5.1;;
73315;SDS011;61545;53.726;-0.444;2022-10-22T05:44:44;19.6;;;5.3;;
73315;SDS011;61545;53.726;-0.444;2022-10-22T05:49:44;16.5;;;4.3;;
73315;SDS011;61545;53.726;-0.444;2022-10-22T05:54:44;16.5;;;4.3;;
73315;SDS011;61545;53.726;-0.444;2022-10-22T05:59:44;10.6;;;3.3;;
73315;SDS011;61545;53.726;-0.444;2022-10-22T06:04:44;11.9;;;3;;
73315;SDS011;61545;53.726;-0.444;2022-10-22T06:09:44;9.2;;;2.1;;
73315;SDS011;61545;53.726;-0.444;2022-10-22T06:14:44;5.3;;;1.5;;
73315;SDS011;61545;53.726;-0.444;2022-10-22T06:19:44;11.4;;;2;;
73315;SDS011;61545;53.726;-0.444;2022-10-22T06:24:44;11.4;;;2;;
73315;SDS011;61545;53.726;-0.444;2022-10-22T06:29:44;8.9;;;1.6;;
73315;SDS011;61545;53.726;-0.444;2022-10-22T06:34:44;6.7;;;1.3;;
73315;SDS011;61545;53.726;-0.444;2022-10-22T06:39:44;4.2;;;1.3;;
73315;SDS011;61545;53.726;-0.444;2022-10-22T06:44:44;11.0;;;1.4;;
73315;SDS011;61545;53.726;-0.444;2022-10-22T06:49:44;6.4;;;1.6;;
73315;SDS011;61545;53.726;-0.444;2022-10-22T06:54:44;6.4;;;1.6;;
73315;SDS011;61545;53.726;-0.444;2022-10-22T06:59:45;8.6;;;1.4;;
73315;SDS011;61545;53.726;-0.444;2022-10-22T07:04:44;8.2;;;1.6;;
73315;SDS011;61545;53.726;-0.444;2022-10-22T07:09:44;4.6;;;1.1;;
73315;SDS011;61545;53.726;-0.444;2022-10-22T07:14:44;11.5;;;1.7;;
73315;SDS011;61545;53.726;-0.444;2022-10-22T07:19:44;6.9;;;1.6;;
73315;SDS011;61545;53.726;-0.444;2022-10-22T07:24:44;6.9;;;1.6;;
73315;SDS011;61545;53.726;-0.444;2022-10-22T07:29:44;7.2;;;1.6;;
73315;SDS011;61545;53.726;-0.444;2022-10-22T07:34:44;8.4;;;2;;
73315;SDS011;61545;53.726;-0.444;2022-10-22T07:39:44;6.8;;;1.4;;
73315;SDS011;61545;53.726;-0.444;2022-10-22T07:44:44;9.7;;;1.9;;
73315;SDS011;61545;53.726;-0.444;2022-10-22T07:49:44;9.0;;;1.7;;
73315;SDS011;61545;53.726;-0.444;2022-10-22T07:54:46;9.0;;;1.7;;
73315;SDS011;61545;53.726;-0.444;2022-10-22T07:59:44;6.8;;;1.6;;
73315;SDS011;61545;53.726;-0.444;2022-10-22T08:04:44;5.2;;;1.3;;
73315;SDS011;61545;53.726;-0.444;2022-10-22T08:09:44;6.6;;;1.5;;
73315;SDS011;61545;53.726;-0.444;2022-10-22T08:14:44;11.8;;;2.5;;
73315;SDS011;61545;53.726;-0.444;2022-10-22T08:19:44;11.4;;;2.3;;
73315;SDS011;61545;53.726;-0.444;2022-10-22T08:24:44;11.4;;;2.3;;
73315;SDS011;61545;53.726;-0.444;2022-10-22T08:29:44;9.7;;;2.2;;
73315;SDS011;61545;53.726;-0.444;2022-10-22T08:34:44;8.9;;;2.5;;
73315;SDS011;61545;53.726;-0.444;2022-10-22T08:39:44;12.5;;;2.7;;
73315;SDS011;61545;53.726;-0.444;2022-10-22T08:44:50;10.5;;;2.2;;
73315;SDS011;61545;53.726;-0.444;2022-10-22T08:49:44;12.5;;;2.5;;
73315;SDS011;61545;53.726;-0.444;2022-10-22T08:54:48;12.5;;;2.5;;
73315;SDS011;61545;53.726;-0.444;2022-10-22T08:59:45;10.1;;;2.2;;
73315;SDS011;61545;53.726;-0.444;2022-10-22T09:04:46;12.3;;;2.7;;
73315;SDS011;61545;53.726;-0.444;2022-10-22T09:09:46;12.7;;;2.8;;
73315;SDS011;61545;53.726;-0.444;2022-10-22T09:14:44;10.6;;;2.8;;
73315;SDS011;61545;53.726;-0.444;2022-10-22T09:19:50;14.2;;;2.8;;
73315;SDS011;61545;53.726;-0.444;2022-10-22T09:24:45;14.2;;;2.8;;
73315;SDS011;61545;53.726;-0.444;2022-10-22T09:29:45;14.3;;;2.6;;
73315;SDS011;61545;53.726;-0.444;2022-10-22T09:34:45;10.2;;;2.5;;
73315;SDS011;61545;53.726;-0.444;2022-10-22T09:39:46;18.6;;;3;;
73315;SDS011;61545;53.726;-0.444;2022-10-22T09:44:50;12.4;;;2.7;;
73315;SDS011;61545;53.726;-0.444;2022-10-22T09:49:44;12.7;;;2.4;;
73315;SDS011;61545;53.726;-0.444;2022-10-22T09:54:44;12.7;;;2.4;;
73315;SDS011;61545;53.726;-0.444;2022-10-22T09:59:47;11.0;;;2.2;;
73315;SDS011;61545;53.726;-0.444;2022-10-22T10:04:46;11.5;;;2.8;;
73315;SDS011;61545;53.726;-0.444;2022-10-22T10:09:44;11.2;;;2.4;;
73315;SDS011;61545;53.726;-0.444;2022-10-22T10:14:47;13.2;;;2.4;;
73315;SDS011;61545;53.726;-0.444;2022-10-22T10:19:51;13.2;;;2.4;;
73315;SDS011;61545;53.726;-0.444;2022-10-22T10:24:52;8.7;;;1.9;;
73315;SDS011;61545;53.726;-0.444;2022-10-22T10:29:47;14.8;;;2.8;;
73315;SDS011;61545;53.726;-0.444;2022-10-22T10:34:47;16.4;;;2.6;;
73315;SDS011;61545;53.726;-0.444;2022-10-22T10:39:55;10.7;;;2;;
73315;SDS011;61545;53.726;-0.444;2022-10-22T10:44:54;12.0;;;2.1;;
73315;SDS011;61545;53.726;-0.444;2022-10-22T10:49:44;12.0;;;2.1;;
73315;SDS011;61545;53.726;-0.444;2022-10-22T10:54:46;12.4;;;2.4;;
73315;SDS011;61545;53.726;-0.444;2022-10-22T10:59:53;14.0;;;2.6;;
73315;SDS011;61545;53.726;-0.444;2022-10-22T11:04:55;10.3;;;2.3;;
73315;SDS011;61545;53.726;-0.444;2022-10-22T11:09:46;15.5;;;2.5;;
73315;SDS011;61545;53.726;-0.444;2022-10-22T11:14:48;12.0;;;2.2;;
73315;SDS011;61545;53.726;-0.444;2022-10-22T11:19:47;12.0;;;2.2;;
73315;SDS011;61545;53.726;-0.444;2022-10-22T11:24:45;16.8;;;2.7;;
73315;SDS011;61545;53.726;-0.444;2022-10-22T11:29:46;12.7;;;2.1;;
73315;SDS011;61545;53.726;-0.444;2022-10-22T11:34:46;12.6;;;2.2;;
73315;SDS011;61545;53.726;-0.444;2022-10-22T11:39:46;10.9;;;2;;
73315;SDS011;61545;53.726;-0.444;2022-10-22T11:44:46;8.5;;;1.7;;
73315;SDS011;61545;53.726;-0.444;2022-10-22T11:49:45;8.5;;;1.7;;
73315;SDS011;61545;53.726;-0.444;2022-10-22T11:54:44;12.5;;;2.5;;
73315;SDS011;61545;53.726;-0.444;2022-10-22T11:59:48;8.9;;;1.9;;
73315;SDS011;61545;53.726;-0.444;2022-10-22T12:04:44;17.6;;;2.7;;
73315;SDS011;61545;53.726;-0.444;2022-10-22T12:09:44;11.6;;;2.1;;
73315;SDS011;61545;53.726;-0.444;2022-10-22T12:14:53;10.5;;;2;;
73315;SDS011;61545;53.726;-0.444;2022-10-22T12:19:45;10.5;;;2;;
73315;SDS011;61545;53.726;-0.444;2022-10-22T12:24:46;10.5;;;2.6;;
73315;SDS011;61545;53.726;-0.444;2022-10-22T12:29:44;12.8;;;2;;
73315;SDS011;61545;53.726;-0.444;2022-10-22T12:34:45;11.8;;;2.2;;
73315;SDS011;61545;53.726;-0.444;2022-10-22T12:39:45;12.6;;;2;;
73315;SDS011;61545;53.726;-0.444;2022-10-22T12:44:44;11.1;;;2.2;;
73315;SDS011;61545;53.726;-0.444;2022-10-22T12:49:45;11.1;;;2.2;;
73315;SDS011;61545;53.726;-0.444;2022-10-22T12:54:45;9.1;;;2.1;;
73315;SDS011;61545;53.726;-0.444;2022-10-22T12:59:45;9.4;;;2;;
73315;SDS011;61545;53.726;-0.444;2022-10-22T13:05:06;11.3;;;2.1;;
73315;SDS011;61545;53.726;-0.444;2022-10-22T13:09:45;10.6;;;2;;
73315;SDS011;61545;53.726;-0.444;2022-10-22T13:14:45;10.1;;;1.8;;
73315;SDS011;61545;53.726;-0.444;2022-10-22T13:19:47;10.1;;;1.8;;
73315;SDS011;61545;53.726;-0.444;2022-10-22T13:24:48;8.5;;;1.7;;
73315;SDS011;61545;53.726;-0.444;2022-10-22T13:29:44;7.8;;;1.6;;
73315;SDS011;61545;53.726;-0.444;2022-10-22T13:34:44;8.6;;;1.9;;
73315;SDS011;61545;53.726;-0.444;2022-10-22T13:39:44;8.9;;;1.7;;
73315;SDS011;61545;53.726;-0.444;2022-10-22T13:44:44;9.8;;;1.8;;
73315;SDS011;61545;53.726;-0.444;2022-10-22T13:49:44;9.8;;;1.8;;
73315;SDS011;61545;53.726;-0.444;2022-10-22T13:54:44;13.0;;;2.5;;
73315;SDS011;61545;53.726;-0.444;2022-10-22T13:59:44;9.7;;;2.6;;
73315;SDS011;61545;53.726;-0.444;2022-10-22T14:04:44;9.0;;;2.1;;
73315;SDS011;61545;53.726;-0.444;2022-10-22T14:09:44;9.8;;;2.3;;
73315;SDS011;61545;53.726;-0.444;2022-10-22T14:14:44;10.3;;;2.9;;
73315;SDS011;61545;53.726;-0.444;2022-10-22T14:19:46;10.3;;;2.9;;
73315;SDS011;61545;53.726;-0.444;2022-10-22T14:24:44;13.5;;;2.4;;
73315;SDS011;61545;53.726;-0.444;2022-10-22T14:29:44;11.0;;;2.6;;
73315;SDS011;61545;53.726;-0.444;2022-10-22T14:34:44;8.9;;;2.4;;
73315;SDS011;61545;53.726;-0.444;2022-10-22T14:39:45;9.0;;;2.6;;
73315;SDS011;61545;53.726;-0.444;2022-10-22T14:44:44;12.6;;;2.5;;
73315;SDS011;61545;53.726;-0.444;2022-10-22T14:49:44;12.6;;;2.5;;
73315;SDS011;61545;53.726;-0.444;2022-10-22T14:54:44;9.3;;;2.5;;
73315;SDS011;61545;53.726;-0.444;2022-10-22T14:59:44;11.3;;;2.8;;
73315;SDS011;61545;53.726;-0.444;2022-10-22T15:04:44;11.1;;;2.4;;
73315;SDS011;61545;53.726;-0.444;2022-10-22T15:09:44;7.8;;;1.8;;
73315;SDS011;61545;53.726;-0.444;2022-10-22T15:14:44;11.4;;;2.1;;
73315;SDS011;61545;53.726;-0.444;2022-10-22T15:19:44;11.4;;;2.1;;
73315;SDS011;61545;53.726;-0.444;2022-10-22T15:24:44;9.1;;;2;;
73315;SDS011;61545;53.726;-0.444;2022-10-22T15:29:44;8.9;;;2.3;;
73315;SDS011;61545;53.726;-0.444;2022-10-22T15:34:44;9.2;;;2.1;;
73315;SDS011;61545;53.726;-0.444;2022-10-22T15:39:44;8.6;;;2.2;;
73315;SDS011;61545;53.726;-0.444;2022-10-22T15:44:44;10.4;;;1.9;;
73315;SDS011;61545;53.726;-0.444;2022-10-22T15:49:44;10.4;;;1.9;;
73315;SDS011;61545;53.726;-0.444;2022-10-22T15:54:44;5.3;;;1.4;;
73315;SDS011;61545;53.726;-0.444;2022-10-22T15:59:44;6.5;;;1.9;;
73315;SDS011;61545;53.726;-0.444;2022-10-22T16:04:44;7.0;;;2.1;;
73315;SDS011;61545;53.726;-0.444;2022-10-22T16:09:44;11.3;;;1.6;;
73315;SDS011;61545;53.726;-0.444;2022-10-22T16:14:44;3.3;;;1;;
73315;SDS011;61545;53.726;-0.444;2022-10-22T16:19:46;3.3;;;1;;
73315;SDS011;61545;53.726;-0.444;2022-10-22T16:24:44;4.1;;;1.2;;
73315;SDS011;61545;53.726;-0.444;2022-10-22T16:29:44;6.9;;;1.2;;
73315;SDS011;61545;53.726;-0.444;2022-10-22T16:34:44;7.2;;;1.3;;
73315;SDS011;61545;53.726;-0.444;2022-10-22T16:39:45;10.3;;;1.4;;
73315;SDS011;61545;53.726;-0.444;2022-10-22T16:44:44;4.8;;;1.2;;
73315;SDS011;61545;53.726;-0.444;2022-10-22T16:49:44;4.8;;;1.2;;
73315;SDS011;61545;53.726;-0.444;2022-10-22T16:54:44;10.1;;;1.3;;
73315;SDS011;61545;53.726;-0.444;2022-10-22T16:59:46;6.1;;;1.2;;
73315;SDS011;61545;53.726;-0.444;2022-10-22T17:04:44;7.9;;;1.6;;
73315;SDS011;61545;53.726;-0.444;2022-10-22T17:09:44;10.9;;;1.5;;
73315;SDS011;61545;53.726;-0.444;2022-10-22T17:14:44;13.5;;;2.5;;
73315;SDS011;61545;53.726;-0.444;2022-10-22T17:19:44;13.5;;;2.5;;
73315;SDS011;61545;53.726;-0.444;2022-10-22T17:24:44;9.6;;;2.6;;
73315;SDS011;61545;53.726;-0.444;2022-10-22T17:29:44;6.8;;;2.1;;
73315;SDS011;61545;53.726;-0.444;2022-10-22T17:34:44;10.7;;;2.8;;
73315;SDS011;61545;53.726;-0.444;2022-10-22T17:39:44;10.5;;;2.9;;
73315;SDS011;61545;53.726;-0.444;2022-10-22T17:44:44;7.6;;;2.4;;
73315;SDS011;61545;53.726;-0.444;2022-10-22T17:49:44;7.6;;;2.4;;
73315;SDS011;61545;53.726;-0.444;2022-10-22T17:54:46;10.4;;;2.7;;
73315;SDS011;61545;53.726;-0.444;2022-10-22T17:59:44;7.3;;;2.3;;
73315;SDS011;61545;53.726;-0.444;2022-10-22T18:04:44;12.7;;;2.9;;
73315;SDS011;61545;53.726;-0.444;2022-10-22T18:09:44;8.0;;;2.3;;
73315;SDS011;61545;53.726;-0.444;2022-10-22T18:14:44;8.3;;;2.1;;
73315;SDS011;61545;53.726;-0.444;2022-10-22T18:19:44;8.3;;;2.1;;
73315;SDS011;61545;53.726;-0.444;2022-10-22T18:24:44;8.0;;;2.6;;
73315;SDS011;61545;53.726;-0.444;2022-10-22T18:29:47;5.7;;;2.3;;
73315;SDS011;61545;53.726;-0.444;2022-10-22T18:34:44;11.0;;;3.2;;
73315;SDS011;61545;53.726;-0.444;2022-10-22T18:39:44;10.4;;;2.7;;
73315;SDS011;61545;53.726;-0.444;2022-10-22T18:44:44;10.9;;;2.4;;
73315;SDS011;61545;53.726;-0.444;2022-10-22T18:49:44;10.9;;;2.4;;
73315;SDS011;61545;53.726;-0.444;2022-10-22T18:54:44;18.7;;;4;;
73315;SDS011;61545;53.726;-0.444;2022-10-22T18:59:44;10.7;;;3.2;;
73315;SDS011;61545;53.726;-0.444;2022-10-22T19:04:44;20.1;;;5.8;;
73315;SDS011;61545;53.726;-0.444;2022-10-22T19:09:44;34.9;;;11.9;;
73315;SDS011;61545;53.726;-0.444;2022-10-22T19:14:44;17.2;;;8;;
73315;SDS011;61545;53.726;-0.444;2022-10-22T19:19:44;17.2;;;8;;
73315;SDS011;61545;53.726;-0.444;2022-10-22T19:24:44;11.8;;;3.8;;
73315;SDS011;61545;53.726;-0.444;2022-10-22T19:29:44;11.6;;;2.7;;
73315;SDS011;61545;53.726;-0.444;2022-10-22T19:34:44;12.1;;;2.9;;
73315;SDS011;61545;53.726;-0.444;2022-10-22T19:39:44;14.0;;;3.1;;
73315;SDS011;61545;53.726;-0.444;2022-10-22T19:44:44;8.6;;;2.2;;
73315;SDS011;61545;53.726;-0.444;2022-10-22T19:49:44;8.6;;;2.2;;
73315;SDS011;61545;53.726;-0.444;2022-10-22T19:54:44;14.8;;;2.9;;
73315;SDS011;61545;53.726;-0.444;2022-10-22T19:59:44;15.7;;;2.9;;
73315;SDS011;61545;53.726;-0.444;2022-10-22T20:04:44;10.0;;;2.7;;
73315;SDS011;61545;53.726;-0.444;2022-10-22T20:09:44;10.8;;;2.7;;
73315;SDS011;61545;53.726;-0.444;2022-10-22T20:14:44;10.8;;;2.3;;
73315;SDS011;61545;53.726;-0.444;2022-10-22T20:19:44;10.8;;;2.3;;
73315;SDS011;61545;53.726;-0.444;2022-10-22T20:24:44;14.4;;;3.8;;
73315;SDS011;61545;53.726;-0.444;2022-10-22T20:29:44;15.3;;;3.8;;
73315;SDS011;61545;53.726;-0.444;2022-10-22T20:34:44;13.7;;;2.8;;
73315;SDS011;61545;53.726;-0.444;2022-10-22T20:39:44;11.9;;;2.9;;
73315;SDS011;61545;53.726;-0.444;2022-10-22T20:44:44;13.5;;;3.6;;
73315;SDS011;61545;53.726;-0.444;2022-10-22T20:49:44;13.5;;;3.6;;
73315;SDS011;61545;53.726;-0.444;2022-10-22T20:54:44;19.1;;;4.5;;
73315;SDS011;61545;53.726;-0.444;2022-10-22T20:59:44;12.1;;;4;;
73315;SDS011;61545;53.726;-0.444;2022-10-22T21:04:44;10.3;;;2.7;;
73315;SDS011;61545;53.726;-0.444;2022-10-22T21:09:44;8.8;;;1.7;;
73315;SDS011;61545;53.726;-0.444;2022-10-22T21:14:45;4.5;;;1.2;;
73315;SDS011;61545;53.726;-0.444;2022-10-22T21:19:44;4.5;;;1.2;;
73315;SDS011;61545;53.726;-0.444;2022-10-22T21:24:44;11.4;;;2.9;;
73315;SDS011;61545;53.726;-0.444;2022-10-22T21:29:44;14.9;;;3;;
73315;SDS011;61545;53.726;-0.444;2022-10-22T21:34:44;10.6;;;2.7;;
73315;SDS011;61545;53.726;-0.444;2022-10-22T21:39:44;13.8;;;2.8;;
73315;SDS011;61545;53.726;-0.444;2022-10-22T21:44:44;11.7;;;2.3;;
73315;SDS011;61545;53.726;-0.444;2022-10-22T21:49:44;11.7;;;2.3;;
73315;SDS011;61545;53.726;-0.444;2022-10-22T21:54:44;10.1;;;2.3;;
73315;SDS011;61545;53.726;-0.444;2022-10-22T21:59:44;9.9;;;2.1;;
73315;SDS011;61545;53.726;-0.444;2022-10-22T22:04:44;11.2;;;2.3;;
73315;SDS011;61545;53.726;-0.444;2022-10-22T22:09:44;11.9;;;2;;
73315;SDS011;61545;53.726;-0.444;2022-10-22T22:14:44;12.9;;;2.3;;
73315;SDS011;61545;53.726;-0.444;2022-10-22T22:19:44;12.9;;;2.3;;
73315;SDS011;61545;53.726;-0.444;2022-10-22T22:24:44;13.2;;;2.6;;
73315;SDS011;61545;53.726;-0.444;2022-10-22T22:29:44;7.1;;;1.9;;
73315;SDS011;61545;53.726;-0.444;2022-10-22T22:34:44;12.3;;;2.4;;
73315;SDS011;61545;53.726;-0.444;2022-10-22T22:39:44;15.2;;;2.3;;
73315;SDS011;61545;53.726;-0.444;2022-10-22T22:44:44;8.7;;;2;;
73315;SDS011;61545;53.726;-0.444;2022-10-22T22:49:44;8.7;;;2;;
73315;SDS011;61545;53.726;-0.444;2022-10-22T22:54:45;7.2;;;1.8;;
73315;SDS011;61545;53.726;-0.444;2022-10-22T22:59:45;9.7;;;1.9;;
73315;SDS011;61545;53.726;-0.444;2022-10-22T23:04:44;13.8;;;2.4;;
73315;SDS011;61545;53.726;-0.444;2022-10-22T23:09:44;11.5;;;2.6;;
73315;SDS011;61545;53.726;-0.444;2022-10-22T23:14:44;11.4;;;2.4;;
73315;SDS011;61545;53.726;-0.444;2022-10-22T23:19:44;11.4;;;2.4;;
73315;SDS011;61545;53.726;-0.444;2022-10-22T23:24:44;10.5;;;2.2;;
73315;SDS011;61545;53.726;-0.444;2022-10-22T23:29:44;11.0;;;2.5;;
73315;SDS011;61545;53.726;-0.444;2022-10-22T23:34:44;12.0;;;2.5;;
73315;SDS011;61545;53.726;-0.444;2022-10-22T23:39:44;11.5;;;2.6;;
73315;SDS011;61545;53.726;-0.444;2022-10-22T23:44:44;11.1;;;2.2;;
73315;SDS011;61545;53.726;-0.444;2022-10-22T23:49:44;11.1;;;2.2;;
73315;SDS011;61545;53.726;-0.444;2022-10-22T23:54:44;16.6;;;2.9;;
73315;SDS011;61545;53.726;-0.444;2022-10-22T23:59:44;13.2;;;2.5;;
